Daisinmaru No.11 — JK5352 — position and weather

sailwx.info

Track history (hours):
 
Tides and Currents Weather Stations Pressure Air Temp Water Temp Dewpoint Dewpoint Depression Visibility Wind Speed Wind Dir Waves Ship Positions

Daisinmaru No.11

Last reported at 2016-May-27 23:32 UTC. Time now 2016-May-30 05:01 UTC.
Position N 35°27' E 139°59'.

Length 52 m; draft 5.2 m.

Type: Cargo ship. MMSI: 431000667.

Date/timePositionNaut miles runAvg speedWind from/ knotsBaromVisibWave heightAir tempDewpointWater temp
2016-May-27 23:32N 35°27' E 139°59'0 0.5
2016-May-27 22:33N 35°27' E 139°60'0 0.0
2016-May-27 21:33N 35°27' E 139°60'0 0.0
2016-May-27 02:33N 35°27' E 139°60'0 0.0
2016-May-27 01:33N 35°27' E 139°60'0 0.0
2016-May-27 00:33N 35°27' E 139°60'3 3.4
2016-May-26 23:33N 35°29' E 139°56'8 8.4
2016-May-26 22:34N 35°31' E 139°46'1 0.0
2016-May-25 07:32N 35°32' E 139°46'0 0.0
2016-May-25 06:33N 35°32' E 139°46'0 0.0
2016-May-25 05:33N 35°32' E 139°46'0 0.0
2016-May-25 04:33N 35°32' E 139°46'0 0.0
2016-May-25 03:33N 35°32' E 139°46'0 0.0
2016-May-25 02:33N 35°32' E 139°46'0 0.0
2016-May-25 01:33N 35°32' E 139°46'0 0.0
2016-May-25 00:33N 35°32' E 139°46'0 0.0
2016-May-24 23:33N 35°32' E 139°46'1 1.1
2016-May-24 22:33N 35°31' E 139°46'9 9.1
2016-May-24 21:33N 35°29' E 139°57'  
2016-May-21 08:16N 35°27' E 139°60'0 0.0
2016-May-21 07:33N 35°27' E 139°60'0 0.0
2016-May-21 06:33N 35°27' E 139°60'4 4.3
2016-May-21 05:33N 35°29' E 139°55'8 8.1
2016-May-21 04:33N 35°32' E 139°46'0 0.1
2016-May-21 03:33N 35°32' E 139°46'0 0.0
2016-May-21 02:33N 35°32' E 139°46'0 0.0
2016-May-21 01:33N 35°32' E 139°46'0 0.0
2016-May-21 00:33N 35°32' E 139°46'0 0.0
2016-May-20 23:33N 35°32' E 139°46'0 0.0
2016-May-20 07:19N 35°32' E 139°46'0 0.1
2016-May-20 06:34N 35°32' E 139°46'0 0.0
2016-May-20 05:33N 35°32' E 139°46'0 0.0
2016-May-20 04:33N 35°32' E 139°46'0 0.0
2016-May-20 03:34N 35°32' E 139°46'2 2.2
2016-May-20 02:34N 35°30' E 139°48'1110.9
2016-May-20 01:34N 35°33' E 140°01'4 0.3
2016-May-19 09:33N 35°32' E 140°06'2 2.0
2016-May-19 08:33N 35°33' E 140°04'9 8.7
2016-May-19 07:33N 35°31' E 139°53'8 8.3
2016-May-19 06:33N 35°30' E 139°43'1 0.7
2016-May-19 05:34N 35°29' E 139°43'0 0.0
2016-May-19 04:33N 35°29' E 139°43'0 0.0
2016-May-19 03:33N 35°29' E 139°43'10 9.9
2016-May-19 02:33N 35°29' E 139°55'4 0.2
2016-May-18 07:03N 35°27' E 139°60'0 0.0
2016-May-18 06:33N 35°27' E 139°60'0 0.0
2016-May-18 05:33N 35°27' E 139°60'0 0.0
2016-May-18 04:33N 35°27' E 139°60'3 2.8
2016-May-18 03:33N 35°29' E 139°57'9 8.6
2016-May-18 02:34N 35°30' E 139°47'2 1.6
2016-May-18 01:33N 35°32' E 139°46'0 0.0
2016-May-18 00:33N 35°32' E 139°46'  
Track history (hours):
 
Tides and Currents Weather Stations Pressure Air Temp Water Temp Dewpoint Dewpoint Depression Visibility Wind Speed Wind Dir Waves Ship Positions

Daisinmaru No.11

Last reported at 2016-May-27 23:32 UTC. Time now 2016-May-30 05:01 UTC.
Position N 35°27' E 139°59'.

Length 52 m; draft 5.2 m.

Type: Cargo ship. MMSI: 431000667.

Date/timePositionNaut miles runAvg speedWind from/ knotsBaromVisibWave heightAir tempDewpointWater temp
2016-May-27 23:32N 35°27' E 139°59'0 0.5
2016-May-27 22:33N 35°27' E 139°60'0 0.0
2016-May-27 21:33N 35°27' E 139°60'0 0.0
2016-May-27 02:33N 35°27' E 139°60'0 0.0
2016-May-27 01:33N 35°27' E 139°60'0 0.0
2016-May-27 00:33N 35°27' E 139°60'3 3.4
2016-May-26 23:33N 35°29' E 139°56'8 8.4
2016-May-26 22:34N 35°31' E 139°46'1 0.0
2016-May-25 07:32N 35°32' E 139°46'0 0.0
2016-May-25 06:33N 35°32' E 139°46'0 0.0
2016-May-25 05:33N 35°32' E 139°46'0 0.0
2016-May-25 04:33N 35°32' E 139°46'0 0.0
2016-May-25 03:33N 35°32' E 139°46'0 0.0
2016-May-25 02:33N 35°32' E 139°46'0 0.0
2016-May-25 01:33N 35°32' E 139°46'0 0.0
2016-May-25 00:33N 35°32' E 139°46'0 0.0
2016-May-24 23:33N 35°32' E 139°46'1 1.1
2016-May-24 22:33N 35°31' E 139°46'9 9.1
2016-May-24 21:33N 35°29' E 139°57'  
2016-May-21 08:16N 35°27' E 139°60'0 0.0
2016-May-21 07:33N 35°27' E 139°60'0 0.0
2016-May-21 06:33N 35°27' E 139°60'4 4.3
2016-May-21 05:33N 35°29' E 139°55'8 8.1
2016-May-21 04:33N 35°32' E 139°46'0 0.1
2016-May-21 03:33N 35°32' E 139°46'0 0.0
2016-May-21 02:33N 35°32' E 139°46'0 0.0
2016-May-21 01:33N 35°32' E 139°46'0 0.0
2016-May-21 00:33N 35°32' E 139°46'0 0.0
2016-May-20 23:33N 35°32' E 139°46'0 0.0
2016-May-20 07:19N 35°32' E 139°46'0 0.1
2016-May-20 06:34N 35°32' E 139°46'0 0.0
2016-May-20 05:33N 35°32' E 139°46'0 0.0
2016-May-20 04:33N 35°32' E 139°46'0 0.0
2016-May-20 03:34N 35°32' E 139°46'2 2.2
2016-May-20 02:34N 35°30' E 139°48'1110.9
2016-May-20 01:34N 35°33' E 140°01'4 0.3
2016-May-19 09:33N 35°32' E 140°06'2 2.0
2016-May-19 08:33N 35°33' E 140°04'9 8.7
2016-May-19 07:33N 35°31' E 139°53'8 8.3
2016-May-19 06:33N 35°30' E 139°43'1 0.7
2016-May-19 05:34N 35°29' E 139°43'0 0.0
2016-May-19 04:33N 35°29' E 139°43'0 0.0
2016-May-19 03:33N 35°29' E 139°43'10 9.9
2016-May-19 02:33N 35°29' E 139°55'4 0.2
2016-May-18 07:03N 35°27' E 139°60'0 0.0
2016-May-18 06:33N 35°27' E 139°60'0 0.0
2016-May-18 05:33N 35°27' E 139°60'0 0.0
2016-May-18 04:33N 35°27' E 139°60'3 2.8
2016-May-18 03:33N 35°29' E 139°57'9 8.6
2016-May-18 02:34N 35°30' E 139°47'2 1.6
2016-May-18 01:33N 35°32' E 139°46'0 0.0
2016-May-18 00:33N 35°32' E 139°46'  

Dump ship's entire track history